Time;durP1;ratioP1;P1;durP2;ratioP2;P2;SDS_P1;SDS_P2;PMS_P1;PMS_P2;Temp;Humidity;BMP_temperature;BMP_pressure;BME280_temperature;BME280_humidity;BME280_pressure;Samples;Min_cycle;Max_cycle;Signal;HPM_P1;HPM_P2
2021/04/17 00:00:29;;;;;;;21.60;4.95;;;;;;;;;;4145980;34;20052;-84
2021/04/17 00:02:58;;;;;;;19.23;5.32;;;;;;;;;;4147677;34;20620;-84
2021/04/17 00:05:29;;;;;;;20.08;5.72;;;;;;;;;;4147000;34;20111;-84
2021/04/17 00:07:58;;;;;;;17.62;5.00;;;;;;;;;;4146548;34;20080;-84
2021/04/17 00:10:26;;;;;;;21.02;5.30;;;;;;;;;;4137828;34;20439;-85
2021/04/17 00:12:56;;;;;;;21.02;5.00;;;;;;;;;;4139565;34;20147;-84
2021/04/17 00:15:25;;;;;;;25.88;4.90;;;;;;;;;;4144874;34;20083;-85
2021/04/17 00:17:53;;;;;;;19.70;4.25;;;;;;;;;;4133390;34;20052;-85
2021/04/17 00:20:21;;;;;;;18.05;3.95;;;;;;;;;;4130737;34;20197;-84
2021/04/17 00:22:50;;;;;;;21.70;5.10;;;;;;;;;;4138271;34;20178;-83
2021/04/17 00:25:18;;;;;;;15.23;4.90;;;;;;;;;;4130975;34;20096;-84
2021/04/17 00:27:47;;;;;;;20.10;4.25;;;;;;;;;;4129945;34;20066;-84
2021/04/17 00:30:15;;;;;;;15.93;3.92;;;;;;;;;;4125726;34;20100;-85
2021/04/17 00:32:43;;;;;;;17.33;3.97;;;;;;;;;;4132302;34;20534;-84
2021/04/17 00:35:12;;;;;;;22.77;4.37;;;;;;;;;;4129585;34;20079;-85
2021/04/17 00:37:43;;;;;;;21.85;4.20;;;;;;;;;;4137960;34;20545;-85
2021/04/17 00:40:12;;;;;;;16.23;3.90;;;;;;;;;;4119307;34;20200;-84
2021/04/17 00:42:40;;;;;;;21.77;4.70;;;;;;;;;;4133951;34;20178;-84
2021/04/17 00:45:09;;;;;;;18.37;4.32;;;;;;;;;;4129008;34;22257;-84
2021/04/17 00:47:37;;;;;;;18.42;4.25;;;;;;;;;;4133614;34;20485;-84
2021/04/17 00:50:08;;;;;;;16.70;4.57;;;;;;;;;;4133303;34;20060;-84
2021/04/17 00:52:37;;;;;;;16.95;3.87;;;;;;;;;;4141669;34;20134;-83
2021/04/17 00:55:07;;;;;;;16.12;3.85;;;;;;;;;;4142660;34;20102;-84
2021/04/17 00:57:35;;;;;;;14.82;3.80;;;;;;;;;;4147519;34;20108;-85
2021/04/17 01:00:06;;;;;;;15.60;4.00;;;;;;;;;;4137827;34;20127;-84
2021/04/17 01:02:37;;;;;;;16.77;4.18;;;;;;;;;;4145050;34;20076;-84
2021/04/17 01:05:07;;;;;;;14.52;4.05;;;;;;;;;;4139018;34;20087;-84
2021/04/17 01:07:37;;;;;;;14.68;3.28;;;;;;;;;;4139023;34;20112;-83
2021/04/17 01:10:12;;;;;;;16.25;3.67;;;;;;;;;;4151999;34;20036;-83
2021/04/17 01:12:43;;;;;;;18.50;3.60;;;;;;;;;;4137561;34;20116;-84
2021/04/17 01:15:12;;;;;;;18.35;3.70;;;;;;;;;;4139434;34;20056;-84
2021/04/17 01:17:41;;;;;;;14.38;4.15;;;;;;;;;;4135123;34;20083;-85
2021/04/17 01:20:20;;;;;;;17.70;4.32;;;;;;;;;;4140706;34;20187;-83
2021/04/17 01:23:02;;;;;;;15.15;3.62;;;;;;;;;;4148162;34;20117;-84
2021/04/17 01:25:39;;;;;;;14.10;3.08;;;;;;;;;;4151659;34;20191;-84
2021/04/17 01:28:07;;;;;;;13.25;3.65;;;;;;;;;;4140997;34;20094;-85
2021/04/17 01:30:36;;;;;;;12.02;3.20;;;;;;;;;;4149158;34;20194;-84
2021/04/17 01:33:04;;;;;;;16.15;3.28;;;;;;;;;;4154478;34;20165;-83
2021/04/17 01:35:33;;;;;;;13.93;3.20;;;;;;;;;;4153514;34;20125;-82
2021/04/17 01:38:22;;;;;;;14.57;3.50;;;;;;;;;;4153532;34;20110;-83
2021/04/17 01:40:56;;;;;;;17.40;3.97;;;;;;;;;;4149267;34;20123;-84
2021/04/17 01:43:26;;;;;;;14.75;3.72;;;;;;;;;;4143393;34;20131;-84
2021/04/17 01:45:57;;;;;;;17.98;3.85;;;;;;;;;;4141622;34;20060;-83
2021/04/17 01:48:28;;;;;;;16.55;3.65;;;;;;;;;;4149200;34;20516;-84
2021/04/17 01:50:58;;;;;;;18.95;3.90;;;;;;;;;;4138268;34;20804;-84
2021/04/17 01:53:29;;;;;;;15.80;3.78;;;;;;;;;;4151614;34;20116;-84
2021/04/17 01:55:59;;;;;;;14.77;3.65;;;;;;;;;;4151546;34;20204;-84
2021/04/17 01:58:34;;;;;;;19.08;3.65;;;;;;;;;;4144596;34;20044;-83
2021/04/17 02:01:04;;;;;;;20.48;3.97;;;;;;;;;;4141033;34;20096;-84
2021/04/17 02:03:34;;;;;;;16.60;3.83;;;;;;;;;;4139611;34;20120;-84
2021/04/17 02:06:02;;;;;;;17.42;4.10;;;;;;;;;;4143404;34;20258;-83
2021/04/17 02:08:35;;;;;;;18.23;4.28;;;;;;;;;;4150373;34;20133;-84
2021/04/17 02:11:05;;;;;;;22.27;4.60;;;;;;;;;;4144801;34;20086;-84
2021/04/17 02:13:35;;;;;;;19.92;3.95;;;;;;;;;;4147700;34;20169;-84
2021/04/17 02:16:11;;;;;;;18.30;4.07;;;;;;;;;;4143856;34;20064;-83
2021/04/17 02:18:54;;;;;;;16.00;3.17;;;;;;;;;;4150255;34;20479;-83
2021/04/17 02:21:24;;;;;;;19.30;3.78;;;;;;;;;;4147494;34;20040;-84
2021/04/17 02:23:52;;;;;;;18.87;4.05;;;;;;;;;;4144946;34;20163;-83
2021/04/17 02:26:21;;;;;;;17.65;3.65;;;;;;;;;;4153760;34;20583;-84
2021/04/17 02:28:49;;;;;;;20.75;4.00;;;;;;;;;;4149850;34;20060;-84
2021/04/17 02:31:18;;;;;;;12.00;3.17;;;;;;;;;;4147842;34;20071;-84
2021/04/17 02:33:46;;;;;;;14.93;3.35;;;;;;;;;;4142069;34;20143;-83
2021/04/17 02:36:14;;;;;;;14.25;2.87;;;;;;;;;;4147485;34;20142;-83
2021/04/17 02:38:43;;;;;;;19.33;4.43;;;;;;;;;;4143315;34;20086;-84
2021/04/17 02:41:13;;;;;;;14.38;3.58;;;;;;;;;;4146372;34;20128;-83
2021/04/17 02:43:42;;;;;;;17.10;4.40;;;;;;;;;;4157673;34;20080;-83
2021/04/17 02:46:11;;;;;;;16.30;3.53;;;;;;;;;;4153109;34;20138;-83
2021/04/17 02:48:43;;;;;;;16.80;3.40;;;;;;;;;;4154285;34;20178;-84
2021/04/17 02:51:12;;;;;;;15.27;3.45;;;;;;;;;;4152314;34;20120;-84
2021/04/17 02:53:40;;;;;;;19.52;4.15;;;;;;;;;;4153481;34;20142;-83
2021/04/17 02:56:08;;;;;;;9.07;3.53;;;;;;;;;;4140354;34;20100;-83
2021/04/17 02:58:36;;;;;;;16.50;3.67;;;;;;;;;;4146992;34;20135;-83
2021/04/17 03:01:05;;;;;;;14.55;3.37;;;;;;;;;;4156687;34;20048;-83
2021/04/17 03:03:33;;;;;;;22.55;3.80;;;;;;;;;;4146502;34;20037;-83
2021/04/17 03:06:02;;;;;;;18.10;4.15;;;;;;;;;;4149887;34;20075;-84
2021/04/17 03:08:32;;;;;;;15.95;4.07;;;;;;;;;;4153533;34;20100;-84
2021/04/17 03:13:46;;;;;;;10.30;3.00;;;;;;;;;;4111938;34;20822;-81
2021/04/17 03:16:14;;;;;;;16.12;3.97;;;;;;;;;;4113756;34;20101;-80
2021/04/17 03:18:42;;;;;;;13.07;3.65;;;;;;;;;;4120311;34;20100;-84
2021/04/17 03:21:31;;;;;;;15.35;4.03;;;;;;;;;;4143155;29;20508;-84
2021/04/17 03:23:59;;;;;;;16.90;3.58;;;;;;;;;;4127838;34;20664;-84
2021/04/17 03:26:28;;;;;;;13.23;3.42;;;;;;;;;;4114247;34;20588;-84
2021/04/17 03:28:57;;;;;;;15.98;3.58;;;;;;;;;;4133779;34;20108;-84
2021/04/17 03:31:27;;;;;;;14.63;3.90;;;;;;;;;;4131382;34;20166;-84
2021/04/17 03:33:56;;;;;;;21.80;3.72;;;;;;;;;;4124381;34;20610;-83
2021/04/17 03:36:24;;;;;;;13.13;3.33;;;;;;;;;;4136707;34;20396;-83
2021/04/17 03:38:55;;;;;;;16.73;3.83;;;;;;;;;;4139937;34;20044;-83
2021/04/17 03:41:23;;;;;;;15.85;3.05;;;;;;;;;;4129089;34;20169;-83
2021/04/17 03:43:52;;;;;;;17.05;3.90;;;;;;;;;;4135320;34;20079;-83
2021/04/17 03:46:20;;;;;;;11.48;3.17;;;;;;;;;;4131914;34;20126;-83
2021/04/17 03:48:49;;;;;;;19.67;4.00;;;;;;;;;;4137250;34;20094;-83
2021/04/17 03:51:17;;;;;;;13.65;3.60;;;;;;;;;;4135528;34;20052;-82
2021/04/17 03:53:45;;;;;;;11.27;3.53;;;;;;;;;;4120741;34;20156;-83
2021/04/17 03:56:14;;;;;;;12.32;3.28;;;;;;;;;;4120611;34;20136;-83
2021/04/17 03:58:47;;;;;;;22.33;4.25;;;;;;;;;;4119712;34;20176;-83
2021/04/17 04:01:15;;;;;;;16.62;3.80;;;;;;;;;;4124978;34;20101;-84
2021/04/17 04:03:44;;;;;;;18.10;3.53;;;;;;;;;;4123180;34;20112;-84
2021/04/17 04:06:12;;;;;;;22.48;8.98;;;;;;;;;;4130151;34;20273;-84
2021/04/17 04:08:41;;;;;;;18.58;9.95;;;;;;;;;;4133097;34;20663;-83
2021/04/17 04:11:12;;;;;;;15.18;11.48;;;;;;;;;;4117989;34;20071;-84
2021/04/17 04:13:40;;;;;;;12.30;3.42;;;;;;;;;;4136874;34;20451;-84
2021/04/17 04:16:08;;;;;;;15.45;4.00;;;;;;;;;;4138571;34;20092;-84
2021/04/17 04:18:41;;;;;;;15.85;3.25;;;;;;;;;;4137043;34;20093;-84
2021/04/17 04:21:09;;;;;;;13.43;3.62;;;;;;;;;;4137738;34;20418;-83
2021/04/17 04:23:38;;;;;;;17.45;3.45;;;;;;;;;;4129339;34;20092;-84
2021/04/17 04:26:06;;;;;;;17.73;3.53;;;;;;;;;;4127993;34;20045;-84
2021/04/17 04:28:34;;;;;;;16.98;3.55;;;;;;;;;;4131730;34;20048;-84
2021/04/17 04:31:04;;;;;;;17.02;4.03;;;;;;;;;;4138180;34;20056;-84
2021/04/17 04:33:32;;;;;;;19.45;3.55;;;;;;;;;;4134589;34;20053;-84
2021/04/17 04:36:00;;;;;;;22.13;3.87;;;;;;;;;;4136992;34;20048;-84
2021/04/17 04:38:29;;;;;;;15.57;3.90;;;;;;;;;;4140756;34;20099;-84
2021/04/17 04:40:58;;;;;;;19.90;3.47;;;;;;;;;;4141207;34;20041;-84
2021/04/17 04:43:27;;;;;;;12.25;3.12;;;;;;;;;;4117136;34;20087;-84
2021/04/17 04:45:55;;;;;;;15.52;4.32;;;;;;;;;;4127641;34;20148;-83
2021/04/17 04:48:24;;;;;;;14.50;3.37;;;;;;;;;;4137224;34;20064;-83
2021/04/17 04:50:52;;;;;;;16.55;3.62;;;;;;;;;;4138224;34;20053;-84
2021/04/17 04:53:21;;;;;;;12.90;3.35;;;;;;;;;;4135393;34;20517;-84
2021/04/17 04:55:49;;;;;;;13.73;3.90;;;;;;;;;;4124338;34;20508;-84
2021/04/17 04:58:17;;;;;;;15.93;7.40;;;;;;;;;;4136672;34;20448;-83
2021/04/17 05:00:46;;;;;;;12.43;2.65;;;;;;;;;;4142343;34;20541;-83
2021/04/17 05:03:14;;;;;;;12.30;2.83;;;;;;;;;;4138724;34;20104;-84
2021/04/17 05:05:42;;;;;;;11.20;3.08;;;;;;;;;;4134480;34;20169;-84
2021/04/17 05:08:11;;;;;;;11.15;4.60;;;;;;;;;;4135859;34;20052;-84
2021/04/17 05:10:39;;;;;;;15.52;5.12;;;;;;;;;;4143565;34;20075;-84
2021/04/17 05:13:07;;;;;;;14.90;4.70;;;;;;;;;;4138131;34;20091;-83
2021/04/17 05:15:36;;;;;;;18.42;4.50;;;;;;;;;;4141307;34;20118;-83
2021/04/17 05:18:04;;;;;;;15.15;5.20;;;;;;;;;;4135578;34;20096;-84
2021/04/17 05:20:33;;;;;;;15.95;3.67;;;;;;;;;;4130475;34;20135;-82
2021/04/17 05:23:01;;;;;;;13.80;3.53;;;;;;;;;;4137492;34;20094;-84
2021/04/17 05:25:30;;;;;;;20.88;3.90;;;;;;;;;;4134749;34;20158;-84
2021/04/17 05:27:58;;;;;;;16.10;3.20;;;;;;;;;;4131759;34;20100;-83
2021/04/17 05:30:27;;;;;;;14.80;3.75;;;;;;;;;;4132313;34;20088;-84
2021/04/17 05:32:57;;;;;;;10.60;3.15;;;;;;;;;;4132937;34;20146;-83
2021/04/17 05:35:26;;;;;;;12.75;2.85;;;;;;;;;;4132722;34;20161;-84
2021/04/17 05:37:54;;;;;;;10.95;3.00;;;;;;;;;;4140506;34;20057;-83
2021/04/17 05:40:23;;;;;;;11.55;4.40;;;;;;;;;;4133315;34;20585;-83
2021/04/17 05:42:54;;;;;;;10.18;2.85;;;;;;;;;;4132860;34;20318;-83
2021/04/17 05:45:23;;;;;;;12.37;3.70;;;;;;;;;;4127318;34;20092;-83
2021/04/17 05:47:51;;;;;;;24.83;16.70;;;;;;;;;;4135064;34;20104;-84
2021/04/17 05:50:20;;;;;;;19.85;17.05;;;;;;;;;;4130236;34;20128;-84
2021/04/17 05:52:48;;;;;;;30.42;17.50;;;;;;;;;;4143499;34;20177;-84
2021/04/17 05:55:16;;;;;;;23.87;18.40;;;;;;;;;;4133688;34;20134;-84
2021/04/17 05:57:47;;;;;;;19.60;14.32;;;;;;;;;;4130042;34;20183;-83
2021/04/17 06:00:18;;;;;;;18.40;12.82;;;;;;;;;;4142054;34;20115;-83
2021/04/17 06:02:47;;;;;;;21.85;12.40;;;;;;;;;;4141842;34;20462;-83
2021/04/17 06:05:16;;;;;;;16.90;11.50;;;;;;;;;;4136454;34;20049;-83
2021/04/17 06:07:46;;;;;;;17.35;10.18;;;;;;;;;;4142259;34;20090;-83
2021/04/17 06:10:15;;;;;;;17.95;10.70;;;;;;;;;;4139815;34;20056;-83
2021/04/17 06:12:43;;;;;;;18.58;10.45;;;;;;;;;;4139427;34;20249;-84
2021/04/17 06:15:12;;;;;;;21.17;10.55;;;;;;;;;;4139196;34;20095;-83
2021/04/17 06:17:41;;;;;;;18.02;7.85;;;;;;;;;;4140866;34;20640;-84
2021/04/17 06:20:10;;;;;;;15.63;3.47;;;;;;;;;;4141624;34;20453;-83
2021/04/17 06:22:39;;;;;;;15.05;3.10;;;;;;;;;;4142843;34;20065;-83
2021/04/17 06:25:08;;;;;;;14.35;3.20;;;;;;;;;;4129894;34;20068;-84
2021/04/17 06:27:36;;;;;;;9.20;2.87;;;;;;;;;;4128943;34;20911;-83
2021/04/17 06:30:06;;;;;;;12.68;2.90;;;;;;;;;;4142367;34;20049;-84
2021/04/17 06:32:35;;;;;;;13.35;3.00;;;;;;;;;;4140618;34;20177;-83
2021/04/17 06:35:03;;;;;;;17.00;2.90;;;;;;;;;;4130183;34;20123;-83
2021/04/17 06:37:31;;;;;;;8.05;2.90;;;;;;;;;;4141215;34;21004;-83
2021/04/17 06:40:00;;;;;;;11.48;3.05;;;;;;;;;;4144423;34;20091;-83
2021/04/17 06:42:30;;;;;;;17.52;3.30;;;;;;;;;;4130702;34;20118;-83
2021/04/17 06:45:00;;;;;;;13.65;3.42;;;;;;;;;;4138921;34;20495;-84
2021/04/17 06:47:28;;;;;;;28.98;23.90;;;;;;;;;;4140727;34;20148;-83
2021/04/17 06:49:58;;;;;;;17.52;13.40;;;;;;;;;;4138436;34;20049;-83
2021/04/17 06:52:27;;;;;;;8.65;2.80;;;;;;;;;;4133475;34;20063;-83
2021/04/17 06:54:56;;;;;;;17.00;10.35;;;;;;;;;;4131226;34;20069;-84
2021/04/17 06:57:24;;;;;;;41.08;37.38;;;;;;;;;;4132868;34;20165;-84
2021/04/17 06:59:52;;;;;;;17.45;13.60;;;;;;;;;;4132691;34;20171;-84
2021/04/17 07:02:21;;;;;;;21.95;17.23;;;;;;;;;;4136399;34;20068;-84
2021/04/17 07:04:52;;;;;;;16.48;11.12;;;;;;;;;;4130783;34;20049;-84
2021/04/17 07:07:20;;;;;;;18.80;13.73;;;;;;;;;;4137233;34;20687;-83
2021/04/17 07:09:49;;;;;;;13.07;9.55;;;;;;;;;;4130938;34;20104;-84
2021/04/17 07:12:17;;;;;;;12.43;8.75;;;;;;;;;;4134347;34;20147;-83
2021/04/17 07:14:48;;;;;;;11.05;9.48;;;;;;;;;;4129105;34;20150;-83
2021/04/17 07:17:18;;;;;;;11.52;8.70;;;;;;;;;;4123992;34;20441;-84
2021/04/17 07:19:51;;;;;;;14.55;8.73;;;;;;;;;;4143336;34;20049;-83
2021/04/17 07:22:21;;;;;;;14.35;8.75;;;;;;;;;;4134879;34;20863;-84
2021/04/17 07:24:50;;;;;;;13.62;8.60;;;;;;;;;;4130954;34;20049;-84
2021/04/17 07:27:36;;;;;;;14.70;8.52;;;;;;;;;;4132032;34;20103;-84
2021/04/17 07:30:04;;;;;;;31.17;27.85;;;;;;;;;;4133093;34;20102;-84
2021/04/17 07:32:33;;;;;;;37.40;33.40;;;;;;;;;;4131292;34;20194;-84
2021/04/17 07:35:06;;;;;;;7.60;2.40;;;;;;;;;;4132513;34;20099;-84
2021/04/17 07:37:34;;;;;;;7.90;2.33;;;;;;;;;;4124143;34;20496;-84
2021/04/17 07:40:26;;;;;;;13.88;2.62;;;;;;;;;;4128473;34;20503;-85
2021/04/17 07:42:56;;;;;;;24.55;22.10;;;;;;;;;;4126397;34;20092;-85
2021/04/17 07:45:26;;;;;;;5.15;2.30;;;;;;;;;;4133185;34;20523;-84
2021/04/17 07:47:58;;;;;;;8.50;2.28;;;;;;;;;;4131507;34;20100;-84
2021/04/17 07:50:31;;;;;;;11.88;2.50;;;;;;;;;;4132832;34;20170;-85
2021/04/17 07:53:01;;;;;;;8.55;2.53;;;;;;;;;;4140502;34;20155;-84
2021/04/17 07:55:32;;;;;;;7.45;2.35;;;;;;;;;;4137456;34;20128;-83
2021/04/17 07:58:01;;;;;;;13.07;8.45;;;;;;;;;;4138872;34;20053;-84
2021/04/17 08:00:30;;;;;;;9.27;2.10;;;;;;;;;;4140696;34;20115;-85
2021/04/17 08:02:59;;;;;;;5.00;1.55;;;;;;;;;;4128739;34;20129;-85
2021/04/17 08:05:30;;;;;;;5.95;1.83;;;;;;;;;;4134210;34;20114;-85
2021/04/17 08:08:01;;;;;;;6.57;1.77;;;;;;;;;;4132025;34;20132;-87
2021/04/17 08:10:32;;;;;;;4.80;1.60;;;;;;;;;;4125113;34;20104;-85
2021/04/17 08:13:07;;;;;;;6.87;1.75;;;;;;;;;;4135726;34;20120;-85
2021/04/17 08:15:37;;;;;;;4.78;1.55;;;;;;;;;;4125786;34;20057;-85
2021/04/17 08:18:09;;;;;;;4.20;1.60;;;;;;;;;;4126949;34;20143;-86
2021/04/17 08:20:47;;;;;;;3.50;1.23;;;;;;;;;;4130623;34;20107;-85
2021/04/17 08:23:19;;;;;;;5.15;1.70;;;;;;;;;;4134105;34;20108;-85
2021/04/17 08:25:54;;;;;;;3.90;1.30;;;;;;;;;;4129367;34;20400;-85
2021/04/17 08:28:28;;;;;;;3.15;1.02;;;;;;;;;;4137042;34;20061;-85
2021/04/17 08:31:16;;;;;;;3.28;1.23;;;;;;;;;;4112832;34;20131;-84
2021/04/17 08:34:07;;;;;;;6.37;1.50;;;;;;;;;;4134726;34;20209;-83
2021/04/17 08:36:55;;;;;;;6.10;1.23;;;;;;;;;;4130483;34;20125;-84
2021/04/17 08:39:32;;;;;;;5.35;1.50;;;;;;;;;;4115404;34;20089;-84
2021/04/17 08:42:10;;;;;;;7.68;1.37;;;;;;;;;;4131655;34;20115;-83
2021/04/17 08:44:47;;;;;;;3.50;1.30;;;;;;;;;;4131985;34;20194;-84
2021/04/17 08:47:40;;;;;;;6.75;1.42;;;;;;;;;;4131390;34;20083;-84
2021/04/17 08:50:23;;;;;;;3.42;1.35;;;;;;;;;;4133248;34;20574;-85
2021/04/17 08:53:01;;;;;;;4.40;1.40;;;;;;;;;;4127936;34;20167;-84
2021/04/17 08:55:39;;;;;;;4.87;1.42;;;;;;;;;;4132115;34;20219;-83
2021/04/17 08:58:15;;;;;;;4.60;1.40;;;;;;;;;;4129843;34;20121;-83
2021/04/17 09:00:53;;;;;;;4.20;1.60;;;;;;;;;;4133307;34;20692;-84
2021/04/17 09:03:39;;;;;;;4.25;1.55;;;;;;;;;;4127428;34;20176;-84
2021/04/17 09:06:25;;;;;;;6.97;1.80;;;;;;;;;;4132604;34;20485;-84
2021/04/17 09:09:14;;;;;;;5.22;1.60;;;;;;;;;;4142059;34;20507;-84
2021/04/17 09:11:46;;;;;;;3.78;1.30;;;;;;;;;;4136317;34;20083;-84
2021/04/17 09:14:32;;;;;;;5.25;1.70;;;;;;;;;;4138143;34;20065;-84
2021/04/17 09:17:07;;;;;;;5.50;1.80;;;;;;;;;;4134818;34;20108;-84
2021/04/17 09:19:41;;;;;;;4.75;1.65;;;;;;;;;;4134795;34;20927;-84
2021/04/17 09:22:30;;;;;;;5.90;1.90;;;;;;;;;;4131468;34;20104;-84
2021/04/17 09:25:00;;;;;;;4.72;1.83;;;;;;;;;;4134846;34;20564;-83
2021/04/17 09:27:31;;;;;;;3.03;1.40;;;;;;;;;;4135647;34;20091;-84
2021/04/17 09:30:12;;;;;;;6.30;1.98;;;;;;;;;;4142195;34;20071;-84
2021/04/17 09:32:44;;;;;;;5.18;1.85;;;;;;;;;;4135951;34;20088;-84
2021/04/17 09:35:32;;;;;;;2.92;1.30;;;;;;;;;;4135409;34;20068;-84
2021/04/17 09:38:23;;;;;;;5.28;1.77;;;;;;;;;;4137149;34;20232;-84
2021/04/17 09:40:55;;;;;;;5.30;1.75;;;;;;;;;;4138969;34;20083;-84
2021/04/17 09:43:34;;;;;;;5.95;1.90;;;;;;;;;;4143263;34;20590;-84
2021/04/17 09:46:06;;;;;;;7.35;2.15;;;;;;;;;;4144930;34;20068;-84
2021/04/17 09:48:42;;;;;;;5.18;1.58;;;;;;;;;;4130672;34;20139;-83
2021/04/17 09:51:25;;;;;;;6.80;1.75;;;;;;;;;;4135867;34;20114;-84
2021/04/17 09:53:56;;;;;;;;;;;;;;;;;;4143428;34;20056;-84
2021/04/17 09:56:30;;;;;;;5.68;1.83;;;;;;;;;;4143512;34;19955;-84
2021/04/17 09:59:12;;;;;;;6.55;1.83;;;;;;;;;;4133497;34;20162;-84
2021/04/17 10:02:01;;;;;;;5.55;2.00;;;;;;;;;;4138611;34;20145;-84
2021/04/17 10:05:07;;;;;;;17.45;2.62;;;;;;;;;;4141473;34;20065;-84
2021/04/17 10:07:44;;;;;;;4.00;1.58;;;;;;;;;;4069325;35;20116;-84
2021/04/17 10:10:15;;;;;;;4.60;1.45;;;;;;;;;;4129321;34;20053;-84
2021/04/17 10:12:47;;;;;;;5.07;1.80;;;;;;;;;;4142693;34;20087;-84
2021/04/17 10:15:34;;;;;;;6.43;1.77;;;;;;;;;;4143971;34;20794;-84
2021/04/17 10:18:06;;;;;;;4.78;1.65;;;;;;;;;;4137488;34;20053;-84
2021/04/17 10:20:42;;;;;;;6.00;1.70;;;;;;;;;;4136522;34;20052;-85
2021/04/17 10:23:12;;;;;;;4.10;1.40;;;;;;;;;;4139085;34;20060;-83
2021/04/17 10:25:45;;;;;;;4.12;1.50;;;;;;;;;;4143330;34;20099;-84
2021/04/17 10:28:26;;;;;;;4.75;1.85;;;;;;;;;;4134458;34;20211;-85
2021/04/17 10:30:58;;;;;;;5.12;2.03;;;;;;;;;;4142479;34;20082;-84
2021/04/17 10:33:29;;;;;;;6.47;2.00;;;;;;;;;;4141688;34;20096;-84
2021/04/17 10:36:02;;;;;;;5.20;1.90;;;;;;;;;;4144622;34;20235;-84
2021/04/17 10:38:35;;;;;;;5.53;1.62;;;;;;;;;;4120108;34;20079;-84
2021/04/17 10:41:06;;;;;;;3.25;1.58;;;;;;;;;;4144453;34;20080;-83
2021/04/17 10:43:37;;;;;;;4.28;1.80;;;;;;;;;;4132457;34;20076;-83
2021/04/17 10:46:07;;;;;;;6.10;1.85;;;;;;;;;;4140930;34;20106;-84
2021/04/17 10:48:43;;;;;;;4.68;1.75;;;;;;;;;;4138338;34;20060;-84
2021/04/17 10:51:15;;;;;;;7.07;1.70;;;;;;;;;;4134666;34;20123;-84
2021/04/17 10:53:48;;;;;;;6.70;1.55;;;;;;;;;;4139170;34;20181;-83
2021/04/17 10:56:23;;;;;;;6.15;1.80;;;;;;;;;;4138542;34;20188;-83
2021/04/17 10:58:59;;;;;;;5.87;2.10;;;;;;;;;;4137272;34;20044;-84
2021/04/17 11:01:31;;;;;;;7.05;1.70;;;;;;;;;;4142757;34;20158;-84
2021/04/17 11:04:03;;;;;;;7.28;1.80;;;;;;;;;;4144032;34;20486;-83
2021/04/17 11:06:36;;;;;;;2.80;1.42;;;;;;;;;;4142519;34;20060;-84
2021/04/17 11:09:07;;;;;;;8.57;1.80;;;;;;;;;;4140478;34;20085;-83
2021/04/17 11:11:37;;;;;;;6.95;1.77;;;;;;;;;;4142390;34;20594;-84
2021/04/17 11:14:08;;;;;;;7.45;1.75;;;;;;;;;;4131861;34;20177;-84
2021/04/17 11:16:39;;;;;;;7.22;1.70;;;;;;;;;;4138794;34;20329;-84
2021/04/17 11:19:24;;;;;;;6.57;1.95;;;;;;;;;;4143637;34;20083;-84
2021/04/17 11:22:14;;;;;;;6.25;1.67;;;;;;;;;;4143425;34;20064;-84
2021/04/17 11:25:04;;;;;;;5.85;1.73;;;;;;;;;;4137404;34;20138;-83
2021/04/17 11:27:35;;;;;;;5.47;1.75;;;;;;;;;;4138579;34;20453;-84
2021/04/17 11:30:07;;;;;;;4.80;1.83;;;;;;;;;;4142544;34;20429;-84
2021/04/17 11:32:39;;;;;;;5.53;1.98;;;;;;;;;;4138266;34;20571;-84
2021/04/17 11:35:13;;;;;;;6.90;1.80;;;;;;;;;;4139188;34;20119;-83
2021/04/17 11:37:44;;;;;;;5.85;1.58;;;;;;;;;;4139797;34;20082;-84
2021/04/17 11:40:15;;;;;;;4.78;1.80;;;;;;;;;;4139994;34;20116;-83
2021/04/17 11:42:45;;;;;;;4.43;1.70;;;;;;;;;;4142101;34;20086;-83
2021/04/17 11:45:18;;;;;;;25.35;2.10;;;;;;;;;;4138339;34;20083;-84
2021/04/17 11:47:49;;;;;;;16.05;2.65;;;;;;;;;;4136207;34;20119;-83
2021/04/17 11:50:19;;;;;;;5.07;1.60;;;;;;;;;;4141829;34;20126;-83
2021/04/17 11:52:51;;;;;;;5.55;1.92;;;;;;;;;;4136812;34;20091;-84
2021/04/17 11:55:23;;;;;;;7.28;1.98;;;;;;;;;;4137773;34;20375;-84
2021/04/17 11:57:56;;;;;;;9.90;1.90;;;;;;;;;;4124402;34;20087;-83
2021/04/17 12:00:26;;;;;;;12.85;1.90;;;;;;;;;;4142333;34;20094;-84
2021/04/17 12:02:56;;;;;;;8.88;1.70;;;;;;;;;;4137916;34;20095;-84
2021/04/17 12:05:27;;;;;;;4.18;1.58;;;;;;;;;;4123768;34;20098;-83
2021/04/17 12:07:58;;;;;;;8.30;1.80;;;;;;;;;;4138218;34;20053;-83
2021/04/17 12:10:28;;;;;;;4.20;1.45;;;;;;;;;;4137861;34;20141;-84
2021/04/17 12:13:01;;;;;;;8.85;2.10;;;;;;;;;;4135255;34;20191;-83
2021/04/17 12:15:32;;;;;;;524.00;101.38;;;;;;;;;;4131654;34;20061;-84
2021/04/17 12:18:02;;;;;;;12.95;12.45;;;;;;;;;;4133348;34;20587;-84
2021/04/17 12:20:33;;;;;;;1999.90;999.90;;;;;;;;;;4131106;34;20076;-84
2021/04/17 12:23:04;;;;;;;1999.90;999.90;;;;;;;;;;4137106;34;20136;-84
2021/04/17 12:25:35;;;;;;;449.77;422.50;;;;;;;;;;4132751;34;20127;-83
2021/04/17 12:28:06;;;;;;;1999.90;999.90;;;;;;;;;;4133883;34;20546;-83
2021/04/17 12:30:38;;;;;;;1999.90;999.90;;;;;;;;;;4138970;34;20063;-84
2021/04/17 12:33:10;;;;;;;1999.90;999.90;;;;;;;;;;4138909;34;20474;-85
2021/04/17 12:35:42;;;;;;;1999.90;999.90;;;;;;;;;;4136919;34;20044;-84
2021/04/17 12:38:13;;;;;;;1999.90;999.90;;;;;;;;;;4142472;34;20813;-83
2021/04/17 12:40:44;;;;;;;1999.90;999.90;;;;;;;;;;4141563;34;20057;-83
2021/04/17 12:43:15;;;;;;;1999.90;999.90;;;;;;;;;;4139154;34;20185;-85
2021/04/17 12:45:45;;;;;;;1999.90;999.90;;;;;;;;;;4139326;34;20104;-85
2021/04/17 12:48:17;;;;;;;1999.90;999.90;;;;;;;;;;4123118;34;20069;-85
2021/04/17 12:50:50;;;;;;;1999.90;999.90;;;;;;;;;;4140156;34;20439;-85
2021/04/17 12:53:25;;;;;;;1999.90;999.90;;;;;;;;;;4138257;34;20084;-86
2021/04/17 12:55:56;;;;;;;4.62;1.80;;;;;;;;;;4138919;34;20057;-85
2021/04/17 12:58:27;;;;;;;18.35;5.93;;;;;;;;;;4140570;34;20064;-85
2021/04/17 13:00:58;;;;;;;3.97;1.37;;;;;;;;;;4135082;34;20489;-85
2021/04/17 13:03:29;;;;;;;7.30;1.80;;;;;;;;;;4139767;34;20128;-86
2021/04/17 13:06:00;;;;;;;10.25;1.90;;;;;;;;;;4132960;34;20128;-85
2021/04/17 13:08:31;;;;;;;5.80;1.67;;;;;;;;;;4122890;34;20128;-86
2021/04/17 13:11:01;;;;;;;6.05;1.73;;;;;;;;;;4141607;34;20213;-86
2021/04/17 13:13:32;;;;;;;5.03;1.23;;;;;;;;;;4139572;34;20116;-85
2021/04/17 13:16:04;;;;;;;4.22;1.40;;;;;;;;;;4122746;34;20112;-85
2021/04/17 13:18:35;;;;;;;4.50;1.37;;;;;;;;;;4141475;34;20124;-85
2021/04/17 13:21:06;;;;;;;6.10;1.65;;;;;;;;;;4129061;34;20439;-86
2021/04/17 13:23:38;;;;;;;5.62;1.60;;;;;;;;;;4144185;34;20057;-85
2021/04/17 13:26:10;;;;;;;5.65;1.52;;;;;;;;;;4143413;34;20162;-86
2021/04/17 13:28:41;;;;;;;3.85;1.23;;;;;;;;;;4144613;34;20056;-86
2021/04/17 13:31:12;;;;;;;2.28;0.80;;;;;;;;;;4138625;34;20066;-86
2021/04/17 13:33:42;;;;;;;11.27;0.80;;;;;;;;;;4144887;34;20064;-85
2021/04/17 13:36:14;;;;;;;4.15;1.50;;;;;;;;;;4145719;34;20060;-86
2021/04/17 13:38:45;;;;;;;1999.90;999.90;;;;;;;;;;4141709;34;20538;-85
2021/04/17 13:41:17;;;;;;;589.58;556.87;;;;;;;;;;4139402;34;20053;-85
2021/04/17 13:43:59;;;;;;;4.85;1.40;;;;;;;;;;4144056;34;20110;-85
2021/04/17 13:46:27;;;;;;;276.48;79.90;;;;;;;;;;4144589;34;20060;-86
2021/04/17 13:48:58;;;;;;;5.85;1.33;;;;;;;;;;4139326;34;20151;-85
2021/04/17 13:51:28;;;;;;;5.05;1.42;;;;;;;;;;4138477;34;20438;-86
2021/04/17 13:54:16;;;;;;;6.10;1.73;;;;;;;;;;4137988;34;20088;-85
2021/04/17 13:56:46;;;;;;;5.93;1.37;;;;;;;;;;4137144;34;20099;-85
2021/04/17 13:59:17;;;;;;;1.90;0.70;;;;;;;;;;4137980;34;20509;-85
2021/04/17 14:01:48;;;;;;;500.92;462.73;;;;;;;;;;4142452;34;20945;-84
2021/04/17 14:04:19;;;;;;;5.57;5.28;;;;;;;;;;4143328;34;20138;-85
2021/04/17 14:06:50;;;;;;;0.60;0.60;;;;;;;;;;4138171;34;20154;-85
2021/04/17 14:09:20;;;;;;;0.43;0.43;;;;;;;;;;4140637;34;20060;-85
2021/04/17 14:11:51;;;;;;;0.40;0.40;;;;;;;;;;4140794;34;20076;-85
2021/04/17 14:14:22;;;;;;;0.30;0.30;;;;;;;;;;4146054;34;20068;-85
2021/04/17 14:16:53;;;;;;;5.85;1.62;;;;;;;;;;4143396;34;20129;-85
2021/04/17 14:19:25;;;;;;;5.80;1.60;;;;;;;;;;4140165;34;20385;-86
2021/04/17 14:21:56;;;;;;;4.05;1.60;;;;;;;;;;4141793;34;20122;-85
2021/04/17 14:24:27;;;;;;;6.68;1.73;;;;;;;;;;4130171;34;20573;-85
2021/04/17 14:26:57;;;;;;;9.75;2.08;;;;;;;;;;4144820;34;20118;-84
2021/04/17 14:29:29;;;;;;;5.68;1.60;;;;;;;;;;4142198;34;20065;-85
2021/04/17 14:32:11;;;;;;;5.97;1.75;;;;;;;;;;4144067;34;20060;-85
2021/04/17 14:34:51;;;;;;;6.82;1.73;;;;;;;;;;4128539;34;20083;-85
2021/04/17 14:37:28;;;;;;;5.12;1.60;;;;;;;;;;4137837;34;20532;-85
2021/04/17 14:40:00;;;;;;;8.25;1.80;;;;;;;;;;4143963;34;20088;-85
2021/04/17 14:42:49;;;;;;;207.57;105.82;;;;;;;;;;4140549;34;20904;-85
2021/04/17 14:45:20;;;;;;;6.75;1.73;;;;;;;;;;4139308;34;20119;-85
2021/04/17 14:47:51;;;;;;;9.23;1.70;;;;;;;;;;4138491;34;20049;-84
2021/04/17 14:50:22;;;;;;;21.62;3.05;;;;;;;;;;4141223;34;20112;-84
2021/04/17 14:53:13;;;;;;;7.12;1.50;;;;;;;;;;4143925;34;20472;-84
2021/04/17 14:55:59;;;;;;;8.32;2.00;;;;;;;;;;4141661;34;20152;-85
2021/04/17 14:58:30;;;;;;;3.97;1.40;;;;;;;;;;4143528;34;20106;-85
2021/04/17 15:01:01;;;;;;;23.65;3.05;;;;;;;;;;4143031;34;20087;-85